createdAt,value
2018-06-04T00:02:53.996Z,17.6
2018-06-04T00:07:53.974Z,17.5
2018-06-04T00:12:54.164Z,17.4
2018-06-04T00:17:54.208Z,17.3
2018-06-04T00:22:53.984Z,17.3
2018-06-04T00:27:54.111Z,17.1
2018-06-04T00:32:54.858Z,17.1
2018-06-04T00:37:54.753Z,17.1
2018-06-04T00:43:07.143Z,17.1
2018-06-04T00:48:06.997Z,17
2018-06-04T00:53:07.036Z,16.9
2018-06-04T00:58:07.084Z,16.8
2018-06-04T01:03:06.996Z,16.7
2018-06-04T01:08:06.887Z,16.6
2018-06-04T01:13:07.076Z,16.4
2018-06-04T01:18:09.141Z,16.6
2018-06-04T01:23:08.876Z,16.5
2018-06-04T01:28:21.277Z,16.3
2018-06-04T01:33:21.005Z,16.3
2018-06-04T01:38:21.162Z,16.2
2018-06-04T01:43:21.005Z,16.2
2018-06-04T01:48:21.236Z,16.2
2018-06-04T01:53:21.164Z,16.2
2018-06-04T01:58:21.017Z,16.1
2018-06-04T02:03:22.164Z,16.1
2018-06-04T02:08:21.894Z,16.1
2018-06-04T02:13:34.609Z,16
2018-06-04T02:18:34.283Z,15.9
2018-06-04T02:23:34.468Z,15.9
2018-06-04T02:28:34.489Z,15.8
2018-06-04T02:33:34.289Z,15.8
2018-06-04T02:38:34.478Z,15.7
2018-06-04T02:43:34.515Z,15.7
2018-06-04T02:48:37.467Z,15.7
2018-06-04T02:53:37.344Z,15.7
2018-06-04T02:58:49.946Z,15.5
2018-06-04T03:03:49.798Z,15.6
2018-06-04T03:08:49.839Z,15.4
2018-06-04T03:13:49.878Z,15.3
2018-06-04T03:18:49.635Z,15.4
2018-06-04T03:23:49.835Z,15.4
2018-06-04T03:28:49.659Z,15.3
2018-06-04T03:33:49.880Z,15.4
2018-06-04T03:38:49.924Z,15.4
2018-06-04T03:44:01.714Z,15.5
2018-06-04T03:49:01.557Z,15.5
2018-06-04T03:54:01.481Z,15.6
2018-06-04T03:59:01.623Z,15.9
2018-06-04T04:04:01.601Z,16.2
2018-06-04T04:09:01.606Z,16.5
2018-06-04T04:14:01.478Z,16.7
2018-06-04T04:19:01.679Z,17
2018-06-04T04:24:01.935Z,17.2
2018-06-04T04:29:16.613Z,17.4
2018-06-04T04:34:16.542Z,17.1
2018-06-04T04:39:16.336Z,17.6
2018-06-04T04:44:16.514Z,17.7
2018-06-04T04:49:16.540Z,18.1
2018-06-04T04:54:16.571Z,18.4
2018-06-04T04:59:16.476Z,18.7
2018-06-04T05:04:18.701Z,18.9
2018-06-04T05:09:18.552Z,19
2018-06-04T05:14:28.911Z,19.4
2018-06-04T05:19:28.837Z,19.7
2018-06-04T05:24:28.738Z,19.8
2018-06-04T05:29:28.773Z,20.3
2018-06-04T05:34:28.828Z,20.3
2018-06-04T05:39:28.649Z,20.7
2018-06-04T05:44:29.453Z,20.8
2018-06-04T05:49:30.082Z,21.1
2018-06-04T05:54:32.911Z,21.5
2018-06-04T05:59:42.114Z,21.7
2018-06-04T06:04:41.875Z,21.8
2018-06-04T06:09:42.077Z,22.2
2018-06-04T06:14:41.988Z,22.4
2018-06-04T06:19:41.861Z,22.7
2018-06-04T06:24:42.074Z,23
2018-06-04T06:29:41.833Z,23.3
2018-06-04T06:34:44.596Z,23.2
2018-06-04T06:39:44.435Z,23.2
2018-06-04T06:44:54.082Z,23.5
2018-06-04T06:49:53.785Z,23.4
2018-06-04T06:54:54.009Z,23.4
2018-06-04T06:59:53.807Z,24.3
2018-06-04T07:04:54.016Z,24.1
2018-06-04T07:09:53.799Z,24.2
2018-06-04T07:14:53.824Z,24.1
2018-06-04T07:19:54.120Z,24.5
2018-06-04T07:24:54.037Z,24.5
2018-06-04T07:30:06.293Z,24.6
2018-06-04T07:35:06.215Z,24.9
2018-06-04T07:40:06.227Z,25.1
2018-06-04T07:45:06.454Z,25.6
2018-06-04T07:50:06.264Z,25.2
2018-06-04T07:55:06.342Z,25.2
2018-06-04T08:00:06.260Z,25.7
2018-06-04T08:05:07.336Z,25.8
2018-06-04T08:10:07.311Z,26
2018-06-04T08:15:19.811Z,25.8
2018-06-04T08:20:19.701Z,26
2018-06-04T08:25:19.759Z,26.3
2018-06-04T08:30:19.564Z,26.6
2018-06-04T08:35:19.701Z,26.4
2018-06-04T08:40:19.541Z,26.5
2018-06-04T08:45:19.658Z,26.6
2018-06-04T08:50:22.993Z,26.8
2018-06-04T08:55:22.922Z,26.8
2018-06-04T09:00:35.451Z,26.7
2018-06-04T09:05:35.378Z,26.9
2018-06-04T09:10:35.305Z,27.2
2018-06-04T09:15:35.343Z,27.4
2018-06-04T09:20:35.350Z,27.5
2018-06-04T09:25:35.412Z,27.3
2018-06-04T09:30:35.333Z,27.3
2018-06-04T09:35:35.697Z,27.8
2018-06-04T09:40:35.621Z,27.7
2018-06-04T09:45:48.468Z,28.3
2018-06-04T09:50:48.354Z,28
2018-06-04T09:55:48.347Z,28.1
2018-06-04T10:00:48.355Z,28.4
2018-06-04T10:05:48.305Z,28
2018-06-04T10:10:48.302Z,28.4
2018-06-04T10:15:48.338Z,28.3
2018-06-04T10:20:49.453Z,28.4
2018-06-04T10:25:49.357Z,28.4
2018-06-04T10:31:02.094Z,28.7
2018-06-04T10:36:02.001Z,29.1
2018-06-04T10:41:01.830Z,28.8
2018-06-04T10:46:02.079Z,28.8
2018-06-04T10:51:01.845Z,29
2018-06-04T10:56:05.171Z,29.3
2018-06-04T11:01:05.348Z,29.2
2018-06-04T11:06:05.183Z,29.3
2018-06-04T11:11:05.190Z,29.5
2018-06-04T11:16:16.915Z,29.6
2018-06-04T11:21:16.848Z,29.3
2018-06-04T11:26:16.876Z,29.6
2018-06-04T11:31:16.803Z,30
2018-06-04T11:36:16.878Z,29.9
2018-06-04T11:41:16.668Z,30
2018-06-04T11:46:18.736Z,29.7
2018-06-04T11:51:16.674Z,29.6
2018-06-04T11:56:16.888Z,29.6
2018-06-04T12:01:16.814Z,30
2018-06-04T12:06:16.678Z,30.2
2018-06-04T12:11:16.684Z,30.1
2018-06-04T12:16:17.032Z,29.7
2018-06-04T12:21:16.942Z,29.8
2018-06-04T12:26:29.573Z,29.6
2018-06-04T12:31:29.524Z,29.4
2018-06-04T12:36:29.280Z,29.5
2018-06-04T12:41:29.480Z,29
2018-06-04T12:46:29.315Z,28.7
2018-06-04T12:51:29.572Z,29.1
2018-06-04T12:56:29.462Z,29.6
2018-06-04T13:01:30.485Z,29.7
2018-06-04T13:06:30.207Z,30
2018-06-04T13:11:42.996Z,30.2
2018-06-04T13:16:42.929Z,29.9
2018-06-04T13:21:42.822Z,29.1
2018-06-04T13:26:42.883Z,29.6
2018-06-04T13:31:42.918Z,29.9
2018-06-04T13:36:42.951Z,29.5
2018-06-04T13:41:42.906Z,29.7
2018-06-04T13:46:44.130Z,30.4
2018-06-04T13:51:43.970Z,30.7
2018-06-04T13:56:56.737Z,30.1
2018-06-04T14:01:56.465Z,29.6
2018-06-04T14:06:56.706Z,30.2
2018-06-04T14:11:56.616Z,29.9
2018-06-04T14:16:56.651Z,30.1
2018-06-04T14:21:56.585Z,30
2018-06-04T14:26:56.472Z,30.5
2018-06-04T14:31:57.273Z,30.3
2018-06-04T14:36:57.010Z,29.9
2018-06-04T14:42:09.589Z,30
2018-06-04T14:47:09.305Z,29.9
2018-06-04T14:52:09.323Z,29.9
2018-06-04T14:57:09.814Z,29.8
2018-06-04T15:02:09.307Z,30.1
2018-06-04T15:07:09.374Z,30.1
2018-06-04T15:12:09.366Z,29.9
2018-06-04T15:17:09.336Z,29.9
2018-06-04T15:22:09.492Z,29.4
2018-06-04T15:27:21.380Z,28.9
2018-06-04T15:32:21.120Z,29.1
2018-06-04T15:37:21.105Z,29.3
2018-06-04T15:42:21.299Z,28.9
2018-06-04T15:47:21.121Z,28.9
2018-06-04T15:52:21.112Z,28.6
2018-06-04T15:57:21.293Z,28.8
2018-06-04T16:02:21.333Z,28.8
2018-06-04T16:07:21.270Z,28.3
2018-06-04T16:12:21.137Z,28.5
2018-06-04T16:17:21.084Z,28.5
2018-06-04T16:22:21.145Z,28.5
2018-06-04T16:27:21.145Z,28.5
2018-06-04T16:32:21.147Z,28.5
2018-06-04T16:37:33.661Z,28.3
2018-06-04T16:42:33.388Z,28.2
2018-06-04T16:47:33.186Z,28.2
2018-06-04T16:52:33.202Z,28.1
2018-06-04T16:57:33.185Z,28.1
2018-06-04T17:02:33.427Z,28
2018-06-04T17:07:33.614Z,27.9
2018-06-04T17:12:34.265Z,27.9
2018-06-04T17:17:33.907Z,27.8
2018-06-04T17:22:46.666Z,27.8
2018-06-04T17:27:46.590Z,27.7
2018-06-04T17:32:46.638Z,27.6
2018-06-04T17:37:46.387Z,27.6
2018-06-04T17:42:46.387Z,27.6
2018-06-04T17:47:46.635Z,27.6
2018-06-04T17:52:46.412Z,27.4
2018-06-04T17:57:49.841Z,27.4
2018-06-04T18:02:49.544Z,27.2
2018-06-04T18:08:00.091Z,27.1
2018-06-04T18:12:59.491Z,26.9
2018-06-04T18:17:59.428Z,26.7
2018-06-04T18:22:59.461Z,26.5
2018-06-04T18:27:59.618Z,26.3
2018-06-04T18:32:59.862Z,26.1
2018-06-04T18:37:59.755Z,25.8
2018-06-04T18:43:01.740Z,25.7
2018-06-04T18:48:01.402Z,25.5
2018-06-04T18:53:13.652Z,25.3
2018-06-04T18:58:13.387Z,25.1
2018-06-04T19:03:13.373Z,25
2018-06-04T19:08:13.406Z,24.8
2018-06-04T19:13:13.382Z,24.7
2018-06-04T19:18:13.384Z,24.6
2018-06-04T19:23:13.413Z,24.5
2018-06-04T19:28:13.409Z,24.3
2018-06-04T19:33:13.352Z,24.1
2018-06-04T19:38:25.501Z,24.1
2018-06-04T19:43:24.966Z,23.8
2018-06-04T19:48:25.239Z,23.7
2018-06-04T19:53:24.956Z,23.5
2018-06-04T19:58:25.017Z,23.4
2018-06-04T20:03:25.029Z,23.1
2018-06-04T20:08:25.267Z,23
2018-06-04T20:13:27.407Z,22.9
2018-06-04T20:18:27.269Z,22.8
2018-06-04T20:23:40.010Z,22.7
2018-06-04T20:28:39.950Z,22.6
2018-06-04T20:33:39.794Z,22.4
2018-06-04T20:38:40.007Z,22.2
2018-06-04T20:43:39.989Z,22.1
2018-06-04T20:48:40.018Z,22
2018-06-04T20:53:39.978Z,21.9
2018-06-04T20:58:40.328Z,21.8
2018-06-04T21:03:39.981Z,21.5
2018-06-04T21:08:52.193Z,21.4
2018-06-04T21:13:51.926Z,21.2
2018-06-04T21:18:52.150Z,21
2018-06-04T21:23:51.931Z,21.1
2018-06-04T21:28:52.145Z,21
2018-06-04T21:33:51.950Z,20.9
2018-06-04T21:38:52.083Z,20.9
2018-06-04T21:43:51.929Z,20.8
2018-06-04T21:48:51.971Z,20.5
2018-06-04T21:53:52.086Z,20.4
2018-06-04T21:58:52.119Z,20.3
2018-06-04T22:03:51.937Z,20.3
2018-06-04T22:08:52.201Z,20.2
2018-06-04T22:13:52.435Z,20.1
2018-06-04T22:19:04.101Z,20
2018-06-04T22:24:03.846Z,19.9
2018-06-04T22:29:03.843Z,19.8
2018-06-04T22:34:03.839Z,19.6
2018-06-04T22:39:03.845Z,19.5
2018-06-04T22:44:03.998Z,19.4
2018-06-04T22:49:04.041Z,19.3
2018-06-04T22:54:04.082Z,19.3
2018-06-04T22:59:04.105Z,19
2018-06-04T23:04:16.116Z,19.1
2018-06-04T23:09:15.828Z,19.1
2018-06-04T23:14:15.978Z,19
2018-06-04T23:19:15.846Z,19
2018-06-04T23:24:15.843Z,19
2018-06-04T23:29:15.847Z,18.9
2018-06-04T23:34:16.019Z,18.8
2018-06-04T23:39:18.827Z,18.7
2018-06-04T23:44:18.779Z,18.5
2018-06-04T23:49:31.165Z,18.6
2018-06-04T23:54:30.887Z,18.6
2018-06-04T23:59:30.882Z,18.5
